Time;durP1;ratioP1;P1;durP2;ratioP2;P2;SDS_P1;SDS_P2;PMS_P1;PMS_P2;Temp;Humidity;BMP_temperature;BMP_pressure;BME280_temperature;BME280_humidity;BME280_pressure;Samples;Min_cycle;Max_cycle;Signal;HPM_P1;HPM_P2
2021/08/24 06:15:08;;;;;;;0.05;0.05;;;15.60;99.90;;;;;;4925011;29;20049;-90
2021/08/24 06:17:35;;;;;;;0.45;0.10;;;15.70;99.90;;;;;;4885335;29;20402;-90
2021/08/24 06:20:04;;;;;;;0.00;0.00;;;15.70;99.90;;;;;;4885600;29;20047;-90
2021/08/24 06:22:30;;;;;;;0.00;0.00;;;15.80;99.90;;;;;;4864083;29;20037;-90
2021/08/24 06:24:59;;;;;;;0.10;0.10;;;15.80;99.90;;;;;;4863415;29;20063;-89
2021/08/24 06:27:26;;;;;;;0.00;0.00;;;15.80;99.90;;;;;;4847937;29;20064;-90
2021/08/24 06:29:53;;;;;;;0.00;0.00;;;15.90;99.90;;;;;;4865712;29;20052;-89
2021/08/24 06:32:35;;;;;;;0.00;0.00;;;15.90;99.90;;;;;;4892917;29;20128;-92
2021/08/24 06:35:03;;;;;;;0.00;0.00;;;16.00;99.90;;;;;;4881678;29;20132;-87
2021/08/24 06:37:30;;;;;;;0.10;0.10;;;16.00;99.90;;;;;;4872935;29;20041;-86
2021/08/24 06:39:57;;;;;;;0.10;0.10;;;16.00;99.90;;;;;;4878257;29;20045;-85
2021/08/24 06:42:24;;;;;;;0.00;0.00;;;16.00;99.90;;;;;;4877388;29;20053;-90
2021/08/24 06:44:51;;;;;;;0.00;0.00;;;16.10;99.90;;;;;;4862880;29;20105;-87
2021/08/24 06:47:17;;;;;;;0.00;0.00;;;16.10;99.90;;;;;;4862794;29;20495;-88
2021/08/24 06:49:44;;;;;;;0.00;0.00;;;16.20;99.90;;;;;;4862528;29;20049;-85
2021/08/24 06:52:11;;;;;;;0.05;0.05;;;16.20;99.90;;;;;;4847528;29;20137;-88
2021/08/24 06:54:38;;;;;;;0.05;0.03;;;16.30;99.90;;;;;;4847647;29;20081;-89
2021/08/24 06:57:12;;;;;;;0.00;0.00;;;16.40;99.90;;;;;;4848807;29;20051;-94
2021/08/24 06:59:39;;;;;;;0.00;0.00;;;16.40;99.90;;;;;;4848208;29;20045;-91
2021/08/24 07:02:15;;;;;;;0.10;0.10;;;16.50;99.90;;;;;;4865241;29;20046;-96
2021/08/24 07:04:42;;;;;;;0.10;0.10;;;16.50;99.90;;;;;;4863424;29;20088;-89
2021/08/24 07:07:08;;;;;;;0.13;0.10;;;16.60;99.90;;;;;;4863824;29;20081;-93
2021/08/24 07:09:36;;;;;;;0.10;0.10;;;16.60;99.90;;;;;;4863288;29;20096;-93
2021/08/24 07:12:03;;;;;;;0.20;0.10;;;16.90;99.90;;;;;;4900434;29;20441;-90
2021/08/24 07:14:31;;;;;;;0.00;0.00;;;16.80;99.90;;;;;;4900550;29;20040;-96
2021/08/24 07:16:57;;;;;;;0.00;0.00;;;16.90;99.90;;;;;;4914360;29;20489;-88
2021/08/24 07:19:24;;;;;;;0.20;0.20;;;16.90;99.90;;;;;;4918645;29;20040;-87
2021/08/24 07:21:51;;;;;;;0.00;0.00;;;17.00;99.90;;;;;;4903304;29;20516;-89
2021/08/24 07:24:21;;;;;;;0.03;0.03;;;17.10;99.90;;;;;;4924322;29;20036;-95
2021/08/24 07:33:56;;;;;;;0.00;0.00;;;17.00;99.90;;;;;;4882654;29;20432;-95
2021/08/24 07:36:23;;;;;;;0.00;0.00;;;17.10;99.90;;;;;;4923134;29;20055;-93
2021/08/24 07:38:50;;;;;;;0.00;0.00;;;17.10;99.90;;;;;;4923998;29;20126;-94
2021/08/24 07:41:19;;;;;;;1.20;0.40;;;17.10;99.90;;;;;;4931463;29;20042;-94
2021/08/24 07:43:46;;;;;;;0.00;0.00;;;17.20;99.90;;;;;;4923946;29;20046;-95
2021/08/24 07:46:13;;;;;;;0.00;0.00;;;17.10;99.90;;;;;;4908056;29;20048;-93
2021/08/24 07:48:40;;;;;;;0.03;0.03;;;17.10;99.90;;;;;;4886825;29;20490;-96
2021/08/24 07:51:06;;;;;;;0.00;0.00;;;17.10;99.90;;;;;;4871849;29;20055;-96
2021/08/24 07:53:33;;;;;;;0.00;0.00;;;17.10;99.90;;;;;;4885650;29;20045;-96
2021/08/24 07:56:02;;;;;;;0.00;0.00;;;17.20;99.90;;;;;;4886280;29;20048;-96
2021/08/24 07:58:29;;;;;;;0.08;0.08;;;17.20;99.90;;;;;;4886124;29;20136;-96
2021/08/24 08:00:55;;;;;;;0.00;0.00;;;17.20;99.90;;;;;;4885471;29;20127;-95
2021/08/24 08:03:22;;;;;;;0.00;0.00;;;17.30;99.90;;;;;;4884772;29;20505;-94
2021/08/24 08:05:49;;;;;;;0.17;0.10;;;17.40;99.90;;;;;;4869636;29;20577;-96
2021/08/24 08:08:16;;;;;;;0.10;0.10;;;17.40;99.90;;;;;;4884457;29;20482;-96
2021/08/24 08:10:43;;;;;;;0.10;0.08;;;17.60;99.90;;;;;;4884391;29;20051;-96
2021/08/24 08:13:10;;;;;;;0.00;0.00;;;17.90;99.90;;;;;;4884292;29;20044;-95
2021/08/24 08:15:37;;;;;;;0.00;0.00;;;18.10;99.90;;;;;;4883639;29;20128;-96
2021/08/24 08:18:06;;;;;;;0.00;0.00;;;18.20;99.90;;;;;;4885009;29;20049;-96
2021/08/24 08:20:35;;;;;;;0.05;0.05;;;18.40;99.90;;;;;;4884636;29;20041;-96
2021/08/24 08:23:04;;;;;;;0.10;0.10;;;18.50;99.90;;;;;;4885387;29;20419;-95
2021/08/24 08:25:32;;;;;;;0.00;0.00;;;18.70;99.90;;;;;;4883972;29;20048;-95
2021/08/24 08:27:59;;;;;;;0.00;0.00;;;18.80;99.90;;;;;;4869830;29;20498;-95
2021/08/24 08:30:26;;;;;;;0.60;0.30;;;19.00;99.90;;;;;;4885728;29;20045;-92
2021/08/24 08:33:03;;;;;;;0.10;0.10;;;19.10;99.90;;;;;;4886009;29;20044;-96
2021/08/24 08:35:30;;;;;;;0.10;0.10;;;19.20;99.90;;;;;;4886292;29;20402;-96
2021/08/24 08:37:58;;;;;;;0.10;0.10;;;19.30;99.90;;;;;;4886944;29;20076;-95
2021/08/24 08:40:43;;;;;;;0.00;0.00;;;19.20;99.90;;;;;;4885263;29;20109;-94
2021/08/24 08:43:34;;;;;;;0.00;0.00;;;19.30;99.90;;;;;;4885028;29;20100;-93
2021/08/24 08:46:34;;;;;;;0.00;0.00;;;19.40;99.90;;;;;;4884095;29;20498;-94
2021/08/24 08:49:23;;;;;;;0.00;0.00;;;19.50;99.90;;;;;;4875181;29;20120;-96
2021/08/24 08:52:14;;;;;;;0.00;0.00;;;19.40;99.90;;;;;;4883457;29;20056;-93
2021/08/24 08:54:41;;;;;;;0.20;0.20;;;19.40;99.90;;;;;;4884089;29;20049;-96
2021/08/24 08:57:19;;;;;;;0.10;0.10;;;19.30;99.90;;;;;;4884019;29;20069;-94
2021/08/24 08:59:54;;;;;;;0.03;0.03;;;19.20;99.90;;;;;;4884012;29;20045;-93
2021/08/24 09:03:13;;;;;;;0.38;0.20;;;19.20;99.90;;;;;;4887512;29;20045;-96
2021/08/24 09:05:40;;;;;;;0.05;0.05;;;19.40;99.90;;;;;;4845380;29;20057;-96
2021/08/24 09:08:07;;;;;;;0.08;0.08;;;19.60;99.90;;;;;;4885193;29;20045;-95
2021/08/24 09:11:45;;;;;;;0.63;0.20;;;19.60;99.90;;;;;;4887288;29;20092;-95
2021/08/24 10:23:37;;;;;;;0.10;0.10;;;21.30;99.90;;;;;;4940180;29;20063;-96
2021/08/24 10:26:34;;;;;;;0.20;0.20;;;21.30;99.90;;;;;;4934864;29;20048;-94
2021/08/24 10:29:05;;;;;;;0.20;0.20;;;21.30;99.90;;;;;;4920693;29;20055;-94
2021/08/24 10:31:42;;;;;;;1.20;0.20;;;21.30;99.90;;;;;;4919977;29;20040;-93
2021/08/24 10:34:33;;;;;;;0.10;0.10;;;21.40;99.90;;;;;;4923705;29;20050;-96
2021/08/24 10:37:25;;;;;;;0.03;0.03;;;21.60;99.90;;;;;;4906941;29;20040;-95
2021/08/24 10:40:11;;;;;;;0.38;0.38;;;21.70;99.90;;;;;;4921831;29;20048;-96
2021/08/24 10:43:04;;;;;;;0.17;0.17;;;21.60;99.90;;;;;;4937414;29;20040;-96
2021/08/24 10:45:39;;;;;;;0.03;0.03;;;21.70;99.90;;;;;;4923144;29;20106;-96
2021/08/24 10:48:18;;;;;;;0.15;0.13;;;21.70;99.90;;;;;;4920356;29;20055;-96
2021/08/24 10:51:01;;;;;;;0.30;0.10;;;21.80;99.90;;;;;;4921190;29;20484;-94
2021/08/24 10:53:43;;;;;;;0.03;0.03;;;21.80;99.90;;;;;;4922010;29;20040;-96
2021/08/24 10:56:29;;;;;;;0.10;0.10;;;22.00;99.90;;;;;;4922448;29;20055;-96
2021/08/24 10:59:01;;;;;;;0.00;0.00;;;21.80;99.90;;;;;;4922731;29;20191;-91
2021/08/24 11:01:43;;;;;;;0.00;0.00;;;21.90;99.90;;;;;;4919445;29;20042;-94
2021/08/24 11:04:18;;;;;;;0.20;0.05;;;22.00;99.90;;;;;;4919901;29;20040;-90
2021/08/24 11:06:54;;;;;;;0.95;0.28;;;22.10;99.90;;;;;;4919367;29;20048;-92
2021/08/24 11:09:30;;;;;;;0.00;0.00;;;22.10;99.90;;;;;;4910195;29;20040;-92
2021/08/24 11:12:14;;;;;;;0.98;0.32;;;22.10;99.90;;;;;;4907605;29;20052;-90
2021/08/24 11:15:01;;;;;;;0.10;0.10;;;22.10;99.90;;;;;;4902016;29;20492;-90
2021/08/24 11:17:40;;;;;;;0.00;0.00;;;22.10;99.90;;;;;;4885687;29;20040;-92
2021/08/24 11:20:23;;;;;;;0.10;0.10;;;22.10;99.90;;;;;;4885218;29;20052;-90
2021/08/24 11:23:05;;;;;;;0.10;0.10;;;22.10;99.90;;;;;;4886069;29;20610;-91
2021/08/24 11:25:48;;;;;;;0.10;0.10;;;22.20;99.90;;;;;;4886788;29;20047;-90
2021/08/24 11:28:36;;;;;;;0.13;0.13;;;22.20;99.90;;;;;;4870716;29;20083;-89
2021/08/24 11:31:20;;;;;;;0.10;0.10;;;22.20;99.90;;;;;;4867220;29;20498;-91
2021/08/24 11:34:04;;;;;;;0.10;0.10;;;22.30;99.90;;;;;;4867844;29;20049;-90
2021/08/24 11:36:39;;;;;;;0.10;0.10;;;22.20;99.90;;;;;;4866257;29;20041;-90
2021/08/24 11:39:18;;;;;;;0.28;0.20;;;22.30;99.90;;;;;;4866262;29;20520;-92
2021/08/24 11:41:47;;;;;;;0.00;0.00;;;22.40;99.90;;;;;;4867333;29;20483;-88
2021/08/24 11:44:32;;;;;;;0.35;0.22;;;22.30;99.90;;;;;;4867848;29;20064;-90
2021/08/24 11:47:10;;;;;;;0.20;0.00;;;22.10;99.90;;;;;;4854912;29;20495;-92
2021/08/24 11:49:43;;;;;;;0.57;0.30;;;21.80;99.90;;;;;;4868964;29;20120;-91
2021/08/24 11:52:24;;;;;;;0.60;0.22;;;21.80;99.90;;;;;;4866885;29;20037;-90
2021/08/24 11:55:03;;;;;;;0.00;0.00;;;21.70;99.90;;;;;;4870230;29;20037;-93
2021/08/24 11:58:10;;;;;;;0.30;0.30;;;21.60;99.90;;;;;;4868680;29;20078;-92
2021/08/24 12:00:39;;;;;;;0.00;0.00;;;21.40;99.90;;;;;;4867857;29;20046;-88
2021/08/24 12:03:13;;;;;;;0.20;0.20;;;21.30;99.90;;;;;;4866675;29;20044;-89
2021/08/24 12:05:46;;;;;;;0.10;0.10;;;21.20;99.90;;;;;;4867521;29;20046;-89
2021/08/24 12:08:18;;;;;;;0.17;0.17;;;21.10;99.90;;;;;;4866250;29;20066;-89
2021/08/24 12:10:51;;;;;;;0.10;0.10;;;21.00;99.90;;;;;;4866922;29;20045;-90
2021/08/24 12:13:31;;;;;;;0.00;0.00;;;21.10;99.90;;;;;;4866976;29;20045;-89
2021/08/24 12:16:25;;;;;;;0.20;0.10;;;21.30;99.90;;;;;;4866939;29;20132;-89
2021/08/24 12:19:13;;;;;;;0.10;0.10;;;21.60;99.90;;;;;;4866296;29;20132;-89
2021/08/24 12:21:40;;;;;;;0.10;0.10;;;21.80;99.90;;;;;;4863880;29;20456;-89
2021/08/24 12:24:35;;;;;;;0.22;0.17;;;21.90;99.90;;;;;;4885726;29;20113;-90
2021/08/24 12:27:08;;;;;;;0.10;0.10;;;21.90;99.90;;;;;;4880894;29;20529;-89
2021/08/24 12:29:35;;;;;;;0.10;0.10;;;22.10;99.90;;;;;;4885139;29;20049;-90
2021/08/24 12:32:12;;;;;;;0.30;0.20;;;22.10;99.90;;;;;;4885258;29;20443;-91
2021/08/24 12:34:46;;;;;;;0.10;0.10;;;22.00;99.90;;;;;;4885522;29;20466;-90
2021/08/24 12:37:18;;;;;;;13.23;0.22;;;21.80;99.90;;;;;;4885641;29;20047;-91
2021/08/24 12:39:46;;;;;;;0.00;0.00;;;21.70;99.90;;;;;;4884830;29;20512;-88
2021/08/24 12:42:32;;;;;;;0.25;0.22;;;21.80;99.90;;;;;;4885107;29;20378;-89
2021/08/24 12:44:58;;;;;;;;;;;22.00;99.90;;;;;;4885197;29;20088;-87
2021/08/24 12:47:29;;;;;;;0.10;0.10;;;22.00;99.90;;;;;;4884192;29;19963;-87
2021/08/24 12:54:13;;;;;;;0.00;0.00;;;22.30;99.90;;;;;;4916394;29;20454;-88
2021/08/24 12:56:44;;;;;;;0.10;0.10;;;22.50;99.90;;;;;;4884320;29;20435;-88
2021/08/24 12:59:34;;;;;;;0.40;0.35;;;22.70;99.90;;;;;;4884289;29;20084;-88
2021/08/24 13:02:28;;;;;;;0.98;0.22;;;22.60;99.90;;;;;;4884029;29;20068;-87
2021/08/24 13:05:15;;;;;;;0.30;0.30;;;22.50;99.90;;;;;;4884313;29;20052;-87
2021/08/24 13:07:43;;;;;;;0.80;0.40;;;22.20;99.90;;;;;;4876923;29;20069;-87
2021/08/24 13:10:37;;;;;;;0.10;0.10;;;22.10;99.90;;;;;;4884234;29;20043;-87
2021/08/24 13:13:28;;;;;;;0.20;0.20;;;22.00;99.90;;;;;;4864344;29;20045;-89
2021/08/24 13:16:08;;;;;;;0.13;0.10;;;22.10;99.90;;;;;;4864823;29;20438;-87
2021/08/24 13:18:37;;;;;;;0.10;0.10;;;22.10;99.90;;;;;;4865453;29;20045;-87
2021/08/24 13:21:21;;;;;;;0.10;0.10;;;22.20;99.90;;;;;;4849853;29;20140;-87
2021/08/24 13:23:51;;;;;;;0.10;0.10;;;22.40;99.90;;;;;;4879336;29;20051;-88
2021/08/24 13:26:22;;;;;;;0.15;0.15;;;22.40;99.90;;;;;;4865112;29;20096;-87
2021/08/24 13:28:54;;;;;;;0.05;0.03;;;22.50;99.90;;;;;;4864967;29;20049;-89
2021/08/24 13:31:44;;;;;;;0.20;0.15;;;22.60;99.90;;;;;;4866547;29;20061;-92
2021/08/24 13:34:25;;;;;;;0.32;0.30;;;22.60;99.80;;;;;;4867282;29;20049;-93
2021/08/24 13:36:54;;;;;;;0.00;0.00;;;22.40;99.90;;;;;;4874394;29;20041;-93
2021/08/24 13:39:20;;;;;;;0.10;0.10;;;22.20;99.90;;;;;;4877824;29;20048;-87
2021/08/24 13:42:00;;;;;;;1.85;0.28;;;22.00;99.90;;;;;;4864559;29;20041;-85
2021/08/24 13:44:46;;;;;;;0.20;0.10;;;21.80;99.90;;;;;;4882152;29;20041;-86
2021/08/24 13:47:19;;;;;;;0.25;0.20;;;21.70;99.90;;;;;;4898043;29;20045;-84
2021/08/24 13:49:50;;;;;;;0.10;0.10;;;21.70;99.90;;;;;;4882674;29;20044;-85
2021/08/24 13:52:37;;;;;;;0.03;0.03;;;21.70;99.90;;;;;;4881565;29;20045;-84
2021/08/24 13:55:28;;;;;;;0.32;0.10;;;21.50;99.90;;;;;;4882143;29;20473;-85
2021/08/24 13:58:15;;;;;;;0.50;0.43;;;21.40;99.90;;;;;;4895279;29;20487;-91
2021/08/24 14:00:53;;;;;;;1.00;0.10;;;21.40;99.90;;;;;;4865690;29;20041;-91
2021/08/24 14:03:20;;;;;;;0.10;0.10;;;21.20;99.90;;;;;;4879038;29;20045;-87
2021/08/24 14:05:55;;;;;;;0.32;0.10;;;21.20;99.90;;;;;;4833982;29;20042;-85
2021/08/24 14:08:30;;;;;;;0.60;0.40;;;21.20;99.90;;;;;;4849819;29;20052;-93
2021/08/24 14:11:03;;;;;;;0.13;0.13;;;21.30;99.90;;;;;;4869638;29;20030;-96
2021/08/24 14:13:42;;;;;;;0.20;0.20;;;21.40;99.90;;;;;;4883307;29;20502;-92
2021/08/24 14:16:24;;;;;;;1.17;0.50;;;21.60;99.90;;;;;;4880402;29;20080;-91
2021/08/24 14:18:58;;;;;;;0.10;0.10;;;21.70;99.90;;;;;;4880434;29;20049;-90
2021/08/24 14:21:28;;;;;;;0.20;0.20;;;21.90;99.90;;;;;;4886274;29;20057;-89
2021/08/24 14:24:01;;;;;;;0.22;0.22;;;21.90;99.90;;;;;;4895210;29;20045;-88
2021/08/24 14:26:36;;;;;;;0.03;0.03;;;21.80;99.90;;;;;;4895115;29;20045;-88
2021/08/24 14:29:06;;;;;;;0.40;0.20;;;21.80;99.90;;;;;;4879872;29;20078;-90
2021/08/24 14:31:40;;;;;;;0.25;0.20;;;21.80;99.90;;;;;;4893919;29;20057;-89
2021/08/24 14:34:35;;;;;;;0.20;0.20;;;21.80;99.90;;;;;;4903430;29;20075;-89
2021/08/24 14:37:07;;;;;;;0.10;0.10;;;21.70;99.90;;;;;;4894949;29;20053;-89
2021/08/24 14:39:40;;;;;;;0.38;0.20;;;21.60;99.90;;;;;;4896719;29;20060;-87
2021/08/24 14:42:10;;;;;;;0.00;0.00;;;21.50;99.90;;;;;;4889840;29;20043;-91
2021/08/24 14:44:47;;;;;;;0.00;0.00;;;21.40;99.90;;;;;;4896899;29;20045;-92
2021/08/24 14:47:32;;;;;;;0.32;0.15;;;21.40;99.90;;;;;;4897199;29;20405;-88
2021/08/24 15:42:34;;;;;;;0.47;0.35;;;21.70;99.90;;;;;;518187;27;20331;-83
2021/08/24 15:45:01;;;;;;;0.08;0.08;;;21.40;99.90;;;;;;4874583;29;20399;-89
2021/08/24 15:47:32;;;;;;;0.20;0.10;;;21.30;99.90;;;;;;4873619;29;20052;-89
2021/08/24 15:50:00;;;;;;;0.10;0.10;;;21.20;99.90;;;;;;4863556;29;20049;-88
2021/08/24 15:52:32;;;;;;;0.40;0.25;;;21.10;99.90;;;;;;4878397;29;20570;-88
2021/08/24 15:55:01;;;;;;;0.20;0.20;;;21.10;99.90;;;;;;4863459;29;20049;-86
2021/08/24 15:57:30;;;;;;;0.00;0.00;;;21.20;99.90;;;;;;4862409;29;20048;-86
2021/08/24 15:59:59;;;;;;;0.20;0.20;;;21.20;99.90;;;;;;4863185;29;20101;-86
2021/08/24 16:02:26;;;;;;;0.25;0.17;;;21.20;99.90;;;;;;4865366;29;20045;-87
2021/08/24 16:04:52;;;;;;;0.28;0.28;;;21.30;99.90;;;;;;4880581;29;20124;-87
2021/08/24 16:07:23;;;;;;;0.00;0.00;;;21.30;99.90;;;;;;4881117;29;20136;-86
2021/08/24 16:09:54;;;;;;;0.05;0.05;;;21.30;99.90;;;;;;4880753;29;20072;-87
2021/08/24 16:12:22;;;;;;;0.10;0.10;;;21.30;99.90;;;;;;4865687;29;20049;-86
2021/08/24 16:14:49;;;;;;;0.20;0.20;;;21.30;99.90;;;;;;4880476;29;20046;-86
2021/08/24 16:17:15;;;;;;;0.10;0.10;;;21.30;99.90;;;;;;4881081;29;20042;-87
2021/08/24 16:19:42;;;;;;;0.32;0.20;;;21.20;99.90;;;;;;4865540;29;20038;-87
2021/08/24 16:22:39;;;;;;;0.00;0.00;;;21.20;99.90;;;;;;4880739;29;20113;-86
2021/08/24 16:25:13;;;;;;;0.15;0.13;;;21.20;99.90;;;;;;4881292;29;20057;-86
2021/08/24 16:27:41;;;;;;;0.00;0.00;;;21.20;99.90;;;;;;4895571;29;20493;-87
2021/08/24 16:30:11;;;;;;;0.22;0.22;;;21.10;99.90;;;;;;4880702;29;20052;-86
2021/08/24 16:32:38;;;;;;;0.28;0.15;;;21.10;99.90;;;;;;4880470;29;20143;-86
2021/08/24 16:35:09;;;;;;;0.55;0.30;;;21.10;99.90;;;;;;4864852;29;20045;-86
2021/08/24 16:37:36;;;;;;;1.17;0.20;;;21.00;99.90;;;;;;4880274;29;20049;-86
2021/08/24 16:40:04;;;;;;;0.00;0.00;;;20.90;99.90;;;;;;4850512;29;20049;-86
2021/08/24 16:42:31;;;;;;;0.28;0.17;;;20.90;99.90;;;;;;4883770;29;20053;-86
2021/08/24 16:44:57;;;;;;;0.43;0.15;;;20.80;99.90;;;;;;4867776;29;20508;-86
2021/08/24 16:47:24;;;;;;;0.00;0.00;;;20.80;99.90;;;;;;4868075;29;20045;-85
2021/08/24 16:49:51;;;;;;;0.13;0.13;;;20.80;99.90;;;;;;4867775;29;20048;-86
2021/08/24 16:52:17;;;;;;;0.32;0.15;;;20.70;99.90;;;;;;4883292;29;20055;-86
2021/08/24 16:54:44;;;;;;;0.00;0.00;;;20.60;99.90;;;;;;4867754;29;20485;-88
2021/08/24 16:57:11;;;;;;;0.00;0.00;;;20.60;99.90;;;;;;4867947;29;20052;-86
2021/08/24 16:59:37;;;;;;;0.20;0.20;;;20.50;99.90;;;;;;4867861;29;20132;-86
2021/08/24 17:02:04;;;;;;;0.90;0.60;;;20.40;99.90;;;;;;4867723;29;20047;-86
2021/08/24 17:04:31;;;;;;;0.00;0.00;;;20.40;99.90;;;;;;4853250;29;20045;-86
2021/08/24 17:06:58;;;;;;;0.32;0.13;;;20.30;99.90;;;;;;4867837;29;20052;-87
2021/08/24 17:09:24;;;;;;;0.00;0.00;;;20.30;99.90;;;;;;4868101;29;20084;-86
2021/08/24 17:11:51;;;;;;;0.00;0.00;;;20.20;99.90;;;;;;4866797;29;20072;-87
2021/08/24 17:14:18;;;;;;;0.00;0.00;;;20.20;99.90;;;;;;4883145;29;20084;-86
2021/08/24 17:16:44;;;;;;;0.10;0.10;;;20.10;99.90;;;;;;4867918;29;20474;-86
2021/08/24 17:19:11;;;;;;;0.00;0.00;;;20.00;99.90;;;;;;4867353;29;20044;-87
2021/08/24 17:21:38;;;;;;;0.00;0.00;;;20.00;99.90;;;;;;4867376;29;20101;-86
2021/08/24 17:24:04;;;;;;;0.10;0.10;;;19.90;99.90;;;;;;4867960;29;20557;-87
2021/08/24 17:26:31;;;;;;;0.20;0.13;;;19.80;99.90;;;;;;4882724;29;20077;-86
2021/08/24 17:29:00;;;;;;;0.40;0.20;;;19.70;99.90;;;;;;4867302;29;20135;-86
2021/08/24 17:31:27;;;;;;;0.00;0.00;;;19.60;99.90;;;;;;4882698;29;20045;-87
2021/08/24 17:33:54;;;;;;;0.15;0.10;;;19.50;99.90;;;;;;4882336;29;20542;-87
2021/08/24 17:36:21;;;;;;;0.00;0.00;;;19.40;99.90;;;;;;4897736;29;20053;-87
2021/08/24 17:38:48;;;;;;;0.10;0.10;;;19.30;99.90;;;;;;4867269;29;20100;-86
2021/08/24 17:41:24;;;;;;;0.20;0.20;;;19.30;99.90;;;;;;4867049;29;20041;-87
2021/08/24 17:43:52;;;;;;;0.38;0.25;;;19.20;99.90;;;;;;4882223;29;20190;-87
2021/08/24 17:46:18;;;;;;;0.28;0.20;;;19.10;99.90;;;;;;4882753;29;20053;-86
2021/08/24 17:48:50;;;;;;;0.08;0.08;;;19.00;99.90;;;;;;4867537;29;20084;-87
2021/08/24 17:51:19;;;;;;;0.10;0.10;;;18.90;99.90;;;;;;4868729;29;20485;-86
2021/08/24 17:53:54;;;;;;;0.00;0.00;;;18.80;99.90;;;;;;4882299;29;20048;-86
2021/08/24 17:56:23;;;;;;;;;;;18.70;99.90;;;;;;4883134;29;20086;-86
2021/08/24 17:58:50;;;;;;;0.00;0.00;;;18.60;99.90;;;;;;4882615;29;19931;-86
2021/08/24 18:01:17;;;;;;;0.00;0.00;;;18.60;99.90;;;;;;4882047;29;20449;-86
2021/08/24 18:03:45;;;;;;;0.00;0.00;;;18.50;99.90;;;;;;4882444;29;20089;-87
2021/08/24 18:06:24;;;;;;;0.00;0.00;;;18.40;99.90;;;;;;4882040;29;20049;-86
2021/08/24 18:08:51;;;;;;;0.08;0.08;;;18.30;99.90;;;;;;4882653;29;20080;-87
2021/08/24 18:11:22;;;;;;;0.43;0.20;;;18.20;99.90;;;;;;4881943;29;20045;-86
2021/08/24 18:13:49;;;;;;;0.20;0.03;;;18.20;99.90;;;;;;4867883;29;20045;-86
2021/08/24 18:16:18;;;;;;;0.20;0.20;;;18.10;99.90;;;;;;4882280;29;20049;-87
2021/08/24 18:18:46;;;;;;;0.00;0.00;;;18.00;99.90;;;;;;4867489;29;20458;-86
2021/08/24 18:21:13;;;;;;;0.00;0.00;;;17.90;99.90;;;;;;4881632;29;20044;-87
2021/08/24 18:23:40;;;;;;;0.00;0.00;;;17.80;99.90;;;;;;4881948;29;20546;-86
2021/08/24 18:26:07;;;;;;;0.20;0.20;;;17.70;99.90;;;;;;4866647;29;20132;-87
2021/08/24 18:28:34;;;;;;;0.00;0.00;;;17.60;99.90;;;;;;4882567;29;20167;-90
2021/08/24 18:31:00;;;;;;;0.57;0.22;;;17.60;99.90;;;;;;4866997;29;20193;-87
2021/08/24 18:33:27;;;;;;;0.13;0.13;;;17.50;99.90;;;;;;4881844;29;20048;-86
2021/08/24 18:35:59;;;;;;;0.10;0.10;;;17.40;99.90;;;;;;4881400;29;20045;-86
2021/08/24 18:38:28;;;;;;;0.00;0.00;;;17.40;99.90;;;;;;4881581;29;20097;-87
2021/08/24 18:40:56;;;;;;;0.17;0.15;;;17.30;99.90;;;;;;4881392;29;20068;-87
2021/08/24 18:43:27;;;;;;;0.13;0.13;;;17.30;99.90;;;;;;4867072;29;20092;-87
2021/08/24 18:45:56;;;;;;;0.17;0.10;;;17.20;99.90;;;;;;4881448;29;20057;-87
2021/08/24 18:48:24;;;;;;;0.00;0.00;;;17.10;99.90;;;;;;4880307;29;20068;-86
2021/08/24 18:50:53;;;;;;;0.22;0.20;;;17.00;99.90;;;;;;4866618;29;20040;-86
2021/08/24 18:53:22;;;;;;;0.00;0.00;;;17.00;99.90;;;;;;4882731;29;20041;-86
2021/08/24 18:56:00;;;;;;;0.00;0.00;;;16.90;99.90;;;;;;4862185;29;20109;-86
2021/08/24 18:58:28;;;;;;;0.15;0.00;;;16.90;99.90;;;;;;4862852;29;20081;-85
2021/08/24 19:01:02;;;;;;;0.10;0.10;;;16.80;99.90;;;;;;4862669;29;20040;-85
2021/08/24 19:03:30;;;;;;;0.00;0.00;;;16.70;99.90;;;;;;4877622;29;20482;-85
2021/08/24 19:05:57;;;;;;;0.00;0.00;;;16.70;99.90;;;;;;4862843;29;20050;-86
2021/08/24 19:08:24;;;;;;;0.82;0.40;;;16.70;99.90;;;;;;4846881;29;20042;-85
2021/08/24 19:10:51;;;;;;;0.00;0.00;;;16.60;99.90;;;;;;4862372;29;20486;-86
2021/08/24 19:13:22;;;;;;;0.00;0.00;;;16.60;99.90;;;;;;4877447;29;20108;-86
2021/08/24 19:15:50;;;;;;;0.00;0.00;;;16.50;99.90;;;;;;4862416;29;20045;-85
2021/08/24 19:18:19;;;;;;;0.43;0.20;;;16.40;99.90;;;;;;4861983;29;20042;-86
2021/08/24 19:20:49;;;;;;;0.10;0.10;;;16.40;99.90;;;;;;4877417;29;20046;-85
2021/08/24 19:23:19;;;;;;;0.20;0.20;;;16.30;99.90;;;;;;4862026;29;20190;-86
2021/08/24 19:25:48;;;;;;;0.00;0.00;;;16.20;99.90;;;;;;4877440;29;20056;-86
2021/08/24 19:28:15;;;;;;;0.10;0.10;;;16.20;99.90;;;;;;4861886;29;20046;-86
2021/08/24 19:30:42;;;;;;;0.00;0.00;;;16.10;99.90;;;;;;4846871;29;20052;-85
2021/08/24 19:33:09;;;;;;;0.00;0.00;;;16.10;99.90;;;;;;4862235;29;20053;-86
2021/08/24 19:35:37;;;;;;;0.10;0.10;;;16.10;99.90;;;;;;4863577;29;20106;-85
2021/08/24 19:38:04;;;;;;;0.35;0.13;;;16.10;99.90;;;;;;4880815;29;20069;-86
2021/08/24 19:40:32;;;;;;;0.00;0.00;;;16.00;99.90;;;;;;4864850;29;20510;-86
2021/08/24 19:43:00;;;;;;;0.35;0.22;;;16.00;99.90;;;;;;4849864;29;20417;-86
2021/08/24 19:45:30;;;;;;;0.00;0.00;;;16.00;99.90;;;;;;4849705;29;20052;-86
2021/08/24 19:47:57;;;;;;;0.00;0.00;;;16.00;99.90;;;;;;4877929;29;20056;-85
2021/08/24 19:50:25;;;;;;;0.00;0.00;;;16.00;99.90;;;;;;4880067;29;20494;-86
2021/08/24 19:52:53;;;;;;;0.00;0.00;;;16.00;99.90;;;;;;4850392;29;20045;-85
2021/08/24 19:55:30;;;;;;;0.00;0.00;;;16.00;99.90;;;;;;4879833;29;20128;-86
2021/08/24 19:57:56;;;;;;;0.17;0.10;;;16.00;99.90;;;;;;4877926;29;20124;-86
2021/08/24 20:00:24;;;;;;;0.03;0.03;;;16.00;99.90;;;;;;4834913;29;20542;-86
2021/08/24 20:02:51;;;;;;;0.20;0.10;;;15.90;99.90;;;;;;4864591;29;20045;-85
2021/08/24 20:05:21;;;;;;;0.00;0.00;;;15.90;99.90;;;;;;4848061;29;20433;-86
2021/08/24 20:07:47;;;;;;;0.05;0.00;;;15.90;99.90;;;;;;4849200;29;20053;-86
2021/08/24 20:10:14;;;;;;;0.40;0.30;;;15.80;99.90;;;;;;4848796;29;20049;-86
2021/08/24 20:12:41;;;;;;;0.22;0.20;;;15.80;99.90;;;;;;4849562;29;20049;-86
2021/08/24 20:15:09;;;;;;;0.30;0.22;;;15.70;99.90;;;;;;4850400;29;20101;-86
2021/08/24 20:17:36;;;;;;;0.00;0.00;;;15.60;99.90;;;;;;4865435;29;20436;-86
2021/08/24 20:20:03;;;;;;;0.00;0.00;;;15.60;99.90;;;;;;4835240;29;20105;-86
2021/08/24 20:22:31;;;;;;;0.00;0.00;;;15.50;99.90;;;;;;4850054;29;20086;-86
2021/08/24 20:24:58;;;;;;;0.68;0.38;;;15.50;99.90;;;;;;4850030;29;20498;-86
2021/08/24 20:27:24;;;;;;;0.00;0.00;;;15.40;99.90;;;;;;4849813;29;20048;-86
2021/08/24 20:29:51;;;;;;;0.00;0.00;;;15.40;99.90;;;;;;4850011;29;20487;-85
2021/08/24 20:32:18;;;;;;;0.00;0.00;;;15.40;99.90;;;;;;4880096;29;20050;-85
2021/08/24 20:34:45;;;;;;;0.00;0.00;;;15.40;99.90;;;;;;4834905;29;20041;-86
2021/08/24 20:37:11;;;;;;;0.50;0.35;;;15.30;99.90;;;;;;4864805;29;20064;-86
2021/08/24 20:39:38;;;;;;;0.00;0.00;;;15.20;99.90;;;;;;4864724;29;20041;-86
2021/08/24 20:42:05;;;;;;;0.00;0.00;;;15.20;99.90;;;;;;4849943;29;20110;-86
2021/08/24 20:44:32;;;;;;;0.10;0.10;;;15.10;99.90;;;;;;4861143;29;20470;-85
2021/08/24 20:46:59;;;;;;;0.00;0.00;;;15.10;99.90;;;;;;4836130;29;20117;-86
2021/08/24 20:49:27;;;;;;;0.00;0.00;;;15.00;99.90;;;;;;4833124;29;20041;-86
2021/08/24 20:51:55;;;;;;;0.47;0.25;;;15.00;99.90;;;;;;4846410;29;20049;-86
2021/08/24 20:54:21;;;;;;;0.10;0.00;;;15.00;99.90;;;;;;4845970;29;20073;-86
2021/08/24 20:56:48;;;;;;;0.00;0.00;;;14.90;99.90;;;;;;4845792;29;20076;-86
2021/08/24 20:59:15;;;;;;;0.65;0.43;;;14.90;99.90;;;;;;4846163;29;20046;-86
2021/08/24 21:01:44;;;;;;;0.00;0.00;;;14.90;99.90;;;;;;4858932;29;20049;-87
2021/08/24 21:04:12;;;;;;;0.95;0.30;;;14.80;99.90;;;;;;4848550;29;20486;-86
2021/08/24 21:06:41;;;;;;;0.10;0.10;;;14.80;99.90;;;;;;4843257;29;20102;-86
2021/08/24 21:09:10;;;;;;;0.05;0.05;;;14.80;99.90;;;;;;4845156;29;20054;-86
2021/08/24 21:11:38;;;;;;;1.20;0.22;;;14.80;99.90;;;;;;4845408;29;20052;-86
2021/08/24 21:14:05;;;;;;;0.47;0.05;;;14.80;99.90;;;;;;4844802;29;20619;-86
2021/08/24 21:16:32;;;;;;;0.38;0.38;;;14.70;99.90;;;;;;4860057;29;20102;-86
2021/08/24 21:18:59;;;;;;;0.10;0.10;;;14.70;99.90;;;;;;4854103;29;20051;-86
2021/08/24 21:21:26;;;;;;;0.20;0.10;;;14.60;99.90;;;;;;4846530;29;20410;-86
2021/08/24 21:23:53;;;;;;;0.00;0.00;;;14.60;99.90;;;;;;4847477;29;20041;-86
2021/08/24 21:26:22;;;;;;;0.00;0.00;;;14.60;99.90;;;;;;4862291;29;20121;-86
2021/08/24 21:28:49;;;;;;;0.00;0.00;;;14.60;99.90;;;;;;4845375;29;20041;-86
2021/08/24 21:31:16;;;;;;;0.10;0.10;;;14.60;99.90;;;;;;4850759;29;20044;-86
2021/08/24 21:33:42;;;;;;;0.15;0.15;;;14.50;99.90;;;;;;4845251;29;20132;-86
2021/08/24 21:36:11;;;;;;;0.00;0.00;;;14.50;99.90;;;;;;4859792;29;20065;-85
2021/08/24 21:38:44;;;;;;;0.00;0.00;;;14.50;99.90;;;;;;4865550;29;20451;-86
2021/08/24 21:41:17;;;;;;;0.00;0.00;;;14.50;99.90;;;;;;4845576;29;20042;-86